• Join FlightAware (Why Join?)
  • Login
  • US Flag 
08:30PM EST


 

Airport Tracker/Info


-or-


 

Live Flight TrackerFlight Track Log ✈ N809NN ✈ 05-May-2012 ✈ KRSW - KDFW

Flight Track Log - Related Links

Times and Time Zones

All times are in EDT time to prevent confusion due to time zone crossing. See the N809NN flight status page for this flight to view local times or setup timezone preferences in your user account.

Time Position Orientation Groundspeed Altitude Reporting Facility
EDT Latitude Longitude Course Direction KTS MPH feet Rate Location/Type
06:47PM 26.5588 -81.8132 215° Southwest  Level FlightAware Approximate
06:48PM 26.4593 -81.8443 253° West  Level FlightAware Approximate
06:49PM 26.3970 -81.9393 34° Northeast  Level FlightAware Approximate
06:50PM 26.3309 -82.0310 45° Northeast  Level FlightAware Approximate
06:50PM 26.4422 -81.9050 233° Southwest 279 321 3,600  Level Miami Center
06:53PM 26.3014 -82.1119 261° West 296 341 11,300 2,220 Climbing Miami Center
06:54PM 26.2869 -82.2178 264° West 309 356 12,600 1,860 Climbing Miami Center
06:55PM 26.2767 -82.3286 265° West 334 384 15,100 2,400 Climbing Miami Center
06:56PM 26.2678 -82.4508 285° West 371 427 17,400 2,280 Climbing Miami Center
06:57PM 26.2947 -82.5608 303° West 381 438 19,700 2,100 Climbing Miami Center
06:58PM 26.3533 -82.6633 301° West 374 430 21,700 1,800 Climbing Miami Center
06:59PM 26.4117 -82.7706 303° West 396 456 23,400 1,680 Climbing Miami Center
07:00PM 26.4761 -82.8803 302° West 413 475 25,100 1,800 Climbing Miami Center
07:01PM 26.5403 -82.9950 301° West 425 489 27,100 1,680 Climbing Miami Center
07:02PM 26.5981 -83.1025 301° West 425 489 28,500 1,200 Climbing Miami Center
07:03PM 26.6600 -83.2172 302° West 425 489 29,500 1,140 Climbing Miami Center
07:04PM 26.7239 -83.3322 303° West 430 495 30,800 1,500 Climbing Miami Center
07:05PM 26.7894 -83.4475 303° West 430 495 32,600 1,500 Climbing Miami Center
07:06PM 26.8514 -83.5556 299° West 430 495 33,900 1,140 Climbing Miami Center
07:07PM 26.9067 -83.6658 303° West 418 481 35,000 1,020 Climbing Miami Center
07:08PM 26.9703 -83.7767 300° West 418 481 36,000 900 Climbing Miami Center
07:09PM 27.0275 -83.8872 301° West 418 481 36,900 780 Climbing Miami Center
07:10PM 27.0886 -84.0003 303° West 418 481 37,600 540 Climbing Miami Center
07:11PM 27.1519 -84.1114 301° West 418 481 38,000 180 Climbing Miami Center
07:12PM 27.2111 -84.2225 302° West 418 481 38,000 -60 Level Miami Center
07:13PM 27.2719 -84.3336 300° West 418 481 37,900  Descending Miami Center
07:14PM 27.3289 -84.4447 302° West 418 481 38,000  Climbing Miami Center
07:15PM 27.3917 -84.5586 302° West 418 481 38,000  Level Miami Center
07:17PM 27.5103 -84.7708 298° West 411 473 38,000  Level Jacksonville Center
07:18PM 27.5608 -84.8794 301° West 410 472 38,000  Level Jacksonville Center
07:19PM 27.6197 -84.9883 299° West 410 472 38,000  Level Jacksonville Center
07:20PM 27.6761 -85.1044 302° West 410 472 38,000  Level Jacksonville Center
07:21PM 27.7347 -85.2111 300° West 410 472 38,000  Level Jacksonville Center
07:22PM 27.7931 -85.3250 301° West 410 472 38,000  Level Jacksonville Center
07:23PM 27.8517 -85.4344 301° West 410 472 38,000  Level Jacksonville Center
07:24PM 27.9097 -85.5439 301° West 410 472 38,000  Level Jacksonville Center
07:25PM 27.9700 -85.6558 302° West 410 472 38,000  Level Jacksonville Center
07:26PM 28.0283 -85.7631 299° West 416 479 38,000  Level Jacksonville Center
07:27PM 28.0881 -85.8850 302° West 421 484 38,000  Level Jacksonville Center
07:28PM 28.1481 -85.9950 300° West 426 490 38,000  Level Jacksonville Center
07:29PM 28.2097 -86.1169 301° West 426 490 38,000 -60 Level Jacksonville Center
07:30PM 28.2675 -86.2272 300° West 421 484 37,900  Descending Jacksonville Center
07:31PM 28.3289 -86.3469 300° West 426 490 38,000  Climbing Jacksonville Center
07:32PM 28.3864 -86.4600 300° West 426 490 38,000  Level Jacksonville Center
07:33PM 28.4456 -86.5753 300° West 426 490 38,000  Level Jacksonville Center
07:34PM 28.5050 -86.6908 300° West 426 490 38,000  Level Jacksonville Center
07:35PM 28.5639 -86.8089 300° West 426 490 38,000  Level Jacksonville Center
07:36PM 28.6231 -86.9247 300° West 426 490 38,000  Level Jacksonville Center
07:37PM 28.6839 -87.0431 299° West 426 490 38,000 -60 Level Jacksonville Center
07:38PM 28.7406 -87.1589 301° West 426 490 37,900  Descending Jacksonville Center
07:39PM 28.8033 -87.2778 301° West 426 490 38,000  Climbing Jacksonville Center
07:40PM 28.8658 -87.3967 298° West 426 490 38,000  Level Jacksonville Center
07:41PM 28.9125 -87.4983 300° West 433 498 38,000  Level Jacksonville Center
07:42PM 28.9908 -87.6519 301° West 426 490 38,000 -60 Level Houston Center
07:43PM 29.0547 -87.7731 299° West 426 490 37,900 -60 Descending Houston Center
07:44PM 29.1058 -87.8806 297° West 420 483 37,900  Level Houston Center
07:45PM 29.1569 -87.9953 298° West 415 478 38,000  Climbing Houston Center
07:46PM 29.2100 -88.1075 298° West 404 465 37,900 -60 Descending Houston Center
07:47PM 29.2631 -88.2200 301° West 397 457 37,900  Level Houston Center
07:48PM 29.3222 -88.3325 300° West 403 464 38,000  Climbing Houston Center
07:49PM 29.3792 -88.4450 299° West 408 470 38,000  Level Houston Center
07:50PM 29.4342 -88.5578 299° West 408 470 38,000  Level Houston Center
07:51PM 29.4889 -88.6708 299° West 408 470 38,000 -60 Level Houston Center
07:52PM 29.5433 -88.7861 299° West 408 470 37,900 -60 Descending Houston Center
07:53PM 29.6003 -88.9042 297° West 408 470 37,900  Level Houston Center
07:54PM 29.6525 -89.0197 299° West 408 470 38,000  Climbing Houston Center
07:55PM 29.7069 -89.1333 299° West 408 470 38,000 -60 Level Houston Center
07:56PM 29.7633 -89.2492 299° West 408 470 37,900  Descending Houston Center
07:57PM 29.8175 -89.3628 300° West 403 464 38,000  Climbing Houston Center
07:58PM 29.8736 -89.4739 297° West 403 464 37,900  Descending Houston Center
07:59PM 29.9256 -89.5903 299° West 403 464 38,000  Climbing Houston Center
08:00PM 29.9817 -89.7092 298° West 403 464 37,900  Descending Houston Center
08:01PM 30.0353 -89.8281 298° West 403 464 38,000  Climbing Houston Center
08:02PM 30.0956 -89.9567 299° West 403 464 37,900  Descending Houston Center
08:03PM 30.1533 -90.0781 298° West 408 470 38,000  Climbing Houston Center
08:04PM 30.2069 -90.1950 300° West 413 475 38,000 -60 Level Houston Center
08:05PM 30.2644 -90.3119 299° West 413 475 37,900  Descending Houston Center
08:07PM 30.3456 -90.4803 296° West 414 476 38,000  Climbing FlightAware ADS-B
08:07PM 30.3731 -90.5464 299° West 413 475 37,900  Descending Houston Center
08:08PM 30.4283 -90.6617 298° West 413 475 38,000  Climbing Houston Center
08:10PM 30.5351 -90.8920 298° West 419 482 38,000  Level FlightAware ADS-B
08:11PM 30.5823 -90.9949 298° West 419 482 38,000  Level FlightAware ADS-B
08:12PM 30.6159 -91.0686 298° West 418 481 38,000  Level FlightAware ADS-B
08:12PM 30.6598 -91.1652 298° West 419 482 38,000  Level FlightAware ADS-B
08:13PM 30.6879 -91.2270 297° West 420 483 38,000  Level FlightAware ADS-B
08:14PM 30.7508 -91.3711 299° West 408 470 38,000  Level Houston Center
08:15PM 30.8075 -91.4919 298° West 408 470 38,000  Level Houston Center
08:16PM 30.8597 -91.6078 297° West 408 470 38,000  Level Houston Center
08:17PM 30.9119 -91.7264 298° West 408 470 38,000  Level Houston Center
08:18PM 30.9639 -91.8428 298° West 408 470 38,000  Level Houston Center
08:20PM 31.0662 -92.0697 297° West 405 466 38,000  Level FlightAware ADS-B
08:21PM 31.0940 -92.1321 297° West 404 465 38,000  Level FlightAware ADS-B
08:21PM 31.1334 -92.2210 297° West 405 466 38,000  Level FlightAware ADS-B
08:22PM 31.1596 -92.2803 299° West 406 467 38,000 -180 Level FlightAware ADS-B
08:22PM 31.1672 -92.2967 297° West 408 470 37,900  Descending Houston Center
08:24PM 31.2564 -92.5007 294° West 411 473 38,000  Climbing FlightAware ADS-B
08:24PM 31.2800 -92.5623 294° West 411 473 38,000  Level FlightAware ADS-B
08:25PM 31.3045 -92.6269 294° West 412 474 38,000  Level FlightAware ADS-B
08:25PM 31.3317 -92.6990 294° West 413 475 38,000  Level FlightAware ADS-B
08:26PM 31.3589 -92.7712 294° West 413 475 38,000  Level FlightAware ADS-B
08:27PM 31.3887 -92.8504 294° West 414 476 38,000  Level FlightAware ADS-B
08:27PM 31.4123 -92.9131 294° West 413 475 38,000  Level FlightAware ADS-B
08:28PM 31.4489 -93.0108 294° West 412 474 38,000  Level FlightAware ADS-B
08:28PM 31.4721 -93.0729 294° West 409 471 38,000  Level FlightAware ADS-B
08:29PM 31.5002 -93.1481 294° West 409 471 38,000  Level FlightAware ADS-B
08:30PM 31.5445 -93.2673 294° West 409 471 38,000  Level FlightAware ADS-B
08:31PM 31.5677 -93.3296 294° West 408 470 38,000  Level FlightAware ADS-B
08:31PM 31.5909 -93.3922 293° West 408 470 38,000  Level FlightAware ADS-B
08:32PM 31.6145 -93.4561 293° West 408 470 38,000  Level FlightAware ADS-B
08:32PM 31.6375 -93.5185 291° West 408 470 38,000  Level FlightAware ADS-B
08:32PM 31.6479 -93.5500 285° West 408 470 38,000  Level FlightAware ADS-B
08:33PM 31.6541 -93.5766 284° West 408 470 38,000  Level FlightAware ADS-B
08:33PM 31.6679 -93.6425 284° West 408 470 38,000  Level FlightAware ADS-B
08:34PM 31.6825 -93.7109 284° West 408 470 38,000  Level FlightAware ADS-B
08:34PM 31.6971 -93.7800 284° West 408 470 38,000  Level FlightAware ADS-B
08:35PM 31.7118 -93.8499 284° West 408 470 38,000  Level FlightAware ADS-B
08:35PM 31.7265 -93.9204 284° West 408 470 38,000  Level FlightAware ADS-B
08:36PM 31.7449 -94.0090 284° West 407 468 38,000  Level FlightAware ADS-B
08:36PM 31.7586 -94.0738 284° West 407 468 38,000  Level FlightAware ADS-B
08:37PM 31.7729 -94.1420 284° West 407 468 38,000  Level FlightAware ADS-B
08:38PM 31.7867 -94.2085 284° West 408 470 38,000  Level FlightAware ADS-B
08:38PM 31.8002 -94.2732 284° West 407 468 38,000  Level FlightAware ADS-B
08:39PM 31.8135 -94.3382 284° West 408 470 38,000  Level FlightAware ADS-B
08:39PM 31.8268 -94.4030 284° West 409 471 38,000  Level FlightAware ADS-B
08:40PM 31.8403 -94.4684 283° West 410 472 38,000  Level FlightAware ADS-B
08:40PM 31.8544 -94.5377 284° West 410 472 38,000  Level FlightAware ADS-B
08:41PM 31.8682 -94.6052 283° West 411 473 38,000  Level FlightAware ADS-B
08:41PM 31.8816 -94.6714 284° West 411 473 38,000 -420 Level FlightAware ADS-B
08:42PM 31.8951 -94.7369 283° West 409 471 37,600 -900 Descending FlightAware ADS-B
08:42PM 31.9089 -94.8052 283° West 403 464 37,100 -960 Descending FlightAware ADS-B
08:43PM 31.9221 -94.8713 283° West 402 463 36,600 -1,020 Descending FlightAware ADS-B
08:43PM 31.9352 -94.9368 283° West 408 470 36,100 -1,020 Descending FlightAware ADS-B
08:44PM 31.9488 -95.0041 283° West 413 475 35,600 -900 Descending FlightAware ADS-B
08:44PM 31.9621 -95.0705 283° West 418 481 35,200 -900 Descending FlightAware ADS-B
08:45PM 31.9757 -95.1387 283° West 423 487 34,700 -1,020 Descending FlightAware ADS-B
08:45PM 31.9891 -95.2067 283° West 426 490 34,200 -1,020 Descending FlightAware ADS-B
08:46PM 32.0027 -95.2743 283° West 428 493 33,700 -1,020 Descending FlightAware ADS-B
08:46PM 32.0166 -95.3441 283° West 430 495 33,200 -1,020 Descending FlightAware ADS-B
08:47PM 32.0302 -95.4132 283° West 431 496 32,700 -960 Descending FlightAware ADS-B
08:48PM 32.0609 -95.5700 283° West 439 505 31,700 -1,320 Descending FlightAware ADS-B
08:49PM 32.0857 -95.6932 290° West 434 499 30,100 -2,100 Descending FlightAware ADS-B
08:49PM 32.0973 -95.7304 295° West 433 498 29,300 -2,760 Descending FlightAware ADS-B
08:49PM 32.1150 -95.7748 295° West 429 494 28,400 -2,580 Descending FlightAware ADS-B
08:50PM 32.1411 -95.8401 295° West 427 491 27,100 -2,460 Descending FlightAware ADS-B
08:51PM 32.1761 -95.9281 295° West 420 483 25,400 -2,400 Descending FlightAware ADS-B
08:51PM 32.2006 -95.9902 295° West 412 474 24,200 -2,400 Descending FlightAware ADS-B
08:52PM 32.2321 -96.0698 295° West 406 467 22,600 -2,400 Descending FlightAware ADS-B
08:53PM 32.2696 -96.1644 295° West 388 447 20,700 -2,400 Descending FlightAware ADS-B
08:53PM 32.3045 -96.2539 295° West 380 437 18,800 -2,280 Descending FlightAware ADS-B
08:54PM 32.3332 -96.3259 295° West 369 425 17,500 -2,160 Descending FlightAware ADS-B
08:55PM 32.3617 -96.3985 304° West 362 417 16,000 -2,220 Descending FlightAware ADS-B
08:55PM 32.3878 -96.4442 313° West 359 413 14,800 -2,100 Descending FAA TRACON SMA TRACON (SMA)
08:56PM 32.4289 -96.4969 314° West 353 406 13,500 -2,040 Descending FAA TRACON SMA TRACON (SMA)
08:57PM 32.4769 -96.5550 314° West 356 410 12,100 -1,920 Descending FAA TRACON SMA TRACON (SMA)
08:57PM 32.5239 -96.6131 315° West 353 406 11,000 -900 Descending FAA TRACON SMA TRACON (SMA)
08:58PM 32.5664 -96.6633 314° West 350 403 10,900 -120 Descending FAA TRACON SMA TRACON (SMA)
08:59PM 32.6128 -96.7200 314° West 347 399 10,900  Level FAA TRACON SMA TRACON (SMA)
08:59PM 32.6586 -96.7756 314° West 339 390 10,900  Level FAA TRACON SMA TRACON (SMA)
09:00PM 32.6989 -96.8250 316° Northwest 297 342 10,900  Level FAA TRACON SMA TRACON (SMA)
09:01PM 32.7383 -96.8706 321° Northwest 252 290 10,900  Level FAA TRACON SMA TRACON (SMA)
09:01PM 32.7661 -96.8972 358° North 245 282 10,900 -600 Level FAA TRACON SMA TRACON (SMA)
09:02PM 32.8122 -96.8994 North 252 290 10,200 -1,500 Descending FAA TRACON SMA TRACON (SMA)
09:03PM 32.8603 -96.8986 357° North 262 302 8,900 -1,980 Descending FAA TRACON SMA TRACON (SMA)
09:03PM 32.9106 -96.9014 357° North 259 298 7,600 -1,800 Descending FAA TRACON SMA TRACON (SMA)
09:04PM 32.9525 -96.9042 352° North 244 281 6,500 -1,980 Descending FAA TRACON SMA TRACON (SMA)
09:05PM 32.9969 -96.9117 346° North 231 266 5,000 -2,220 Descending FAA TRACON SMA TRACON (SMA)
09:05PM 33.0375 -96.9242 279° West 240 276 3,600 -1,980 Descending FAA TRACON SMA TRACON (SMA)
09:06PM 33.0442 -96.9725 237° Southwest 218 251 2,400 -1,020 Descending FAA TRACON SMA TRACON (SMA)
09:07PM 33.0267 -97.0042 212° Southwest 175 201 2,300 -240 Descending FAA TRACON SMA TRACON (SMA)
09:07PM 33.0050 -97.0203 212° Southwest 153 176 2,100 -300 Descending FAA TRACON SMA TRACON (SMA)